Time;durP1;ratioP1;P1;durP2;ratioP2;P2;SDS_P1;SDS_P2;PMS_P1;PMS_P2;Temp;Humidity;BMP_temperature;BMP_pressure;BME280_temperature;BME280_humidity;BME280_pressure;Samples;Min_cycle;Max_cycle;Signal;HPM_P1;HPM_P2
2022/09/27 00:01:12;;;;;;;0.30;0.20;;;;;;;11.67;100.00;99567.22;2615165;36;20057;-54
2022/09/27 00:03:40;;;;;;;2.72;0.40;;;;;;;11.72;100.00;99571.09;2615718;36;20031;-56
2022/09/27 00:06:13;;;;;;;0.88;0.30;;;;;;;11.63;100.00;99574.84;2614810;31;20119;-56
2022/09/27 00:08:41;;;;;;;0.75;0.28;;;;;;;11.63;100.00;99577.53;2615527;31;20046;-55
2022/09/27 00:11:16;;;;;;;1.52;0.40;;;;;;;11.67;100.00;99580.69;2616659;31;20023;-55
2022/09/27 00:13:45;;;;;;;1.05;0.30;;;;;;;11.73;100.00;99588.09;2614853;36;20034;-55
2022/09/27 00:16:16;;;;;;;2.20;0.43;;;;;;;11.81;100.00;99579.97;2613950;36;20539;-57
2022/09/27 00:18:44;;;;;;;2.58;0.35;;;;;;;11.70;100.00;99572.25;2615792;36;20069;-56
2022/09/27 00:21:14;;;;;;;0.97;0.30;;;;;;;11.61;100.00;99574.16;2615391;36;20039;-57
2022/09/27 00:23:43;;;;;;;5.55;0.85;;;;;;;11.63;100.00;99571.28;2614724;36;20307;-55
2022/09/27 00:26:14;;;;;;;1.17;0.40;;;;;;;11.62;100.00;99569.63;2615322;36;20023;-52
2022/09/27 00:28:42;;;;;;;1.02;0.47;;;;;;;11.62;100.00;99565.06;2615380;36;21135;-53
2022/09/27 00:31:22;;;;;;;1.08;0.40;;;;;;;11.56;100.00;99573.84;2614464;36;20089;-55
2022/09/27 00:33:53;;;;;;;0.45;0.30;;;;;;;11.43;100.00;99560.91;2615164;36;20668;-54
2022/09/27 00:36:24;;;;;;;0.90;0.40;;;;;;;11.46;100.00;99565.97;2615189;36;20119;-52
2022/09/27 00:38:53;;;;;;;0.45;0.40;;;;;;;11.43;100.00;99578.94;2615777;36;20447;-55
2022/09/27 00:41:23;;;;;;;1.48;0.40;;;;;;;11.36;100.00;99581.47;2615130;36;20030;-56
2022/09/27 00:43:54;;;;;;;1.58;0.32;;;;;;;11.40;100.00;99588.22;2613973;36;20041;-54
2022/09/27 00:46:29;;;;;;;2.05;0.50;;;;;;;11.37;100.00;99588.56;2615239;36;20038;-57
2022/09/27 00:49:06;;;;;;;2.10;0.38;;;;;;;11.31;100.00;99586.56;2616168;31;20019;-56
2022/09/27 00:51:39;;;;;;;6.07;0.90;;;;;;;11.37;100.00;99584.00;2615584;36;20577;-55
2022/09/27 00:54:11;;;;;;;1.15;0.40;;;;;;;11.29;100.00;99577.78;2615394;36;20038;-57
2022/09/27 00:56:40;;;;;;;1.50;0.40;;;;;;;11.28;100.00;99584.19;2616145;36;20030;-55
2022/09/27 00:59:13;;;;;;;1.77;0.50;;;;;;;11.22;100.00;99581.19;2614676;36;20031;-57
2022/09/27 01:01:44;;;;;;;1.00;0.50;;;;;;;11.22;100.00;99581.19;2614615;36;20044;-55
2022/09/27 01:04:15;;;;;;;0.65;0.40;;;;;;;11.22;100.00;99591.13;2615656;36;20022;-50
2022/09/27 01:06:43;;;;;;;2.78;0.40;;;;;;;11.27;100.00;99596.00;2615670;36;20113;-54
2022/09/27 01:09:13;;;;;;;1.43;0.40;;;;;;;11.13;100.00;99590.28;2615266;36;20069;-52
2022/09/27 01:11:44;;;;;;;;;;;;;;;11.15;100.00;99599.03;2615258;36;20556;-54
2022/09/27 01:14:25;;;;;;;1.30;0.68;;;;;;;11.14;100.00;99596.50;2614804;36;19973;-53
2022/09/27 01:17:07;;;;;;;2.35;0.50;;;;;;;11.16;100.00;99607.94;2615492;31;20046;-52
2022/09/27 01:20:07;;;;;;;4.05;0.60;;;;;;;11.19;100.00;99608.47;2614996;31;20038;-54
2022/09/27 01:22:43;;;;;;;1.83;0.40;;;;;;;11.19;100.00;99603.06;2615153;36;20566;-55
2022/09/27 01:25:33;;;;;;;1.90;0.47;;;;;;;11.15;100.00;99599.03;2615433;31;20057;-55
2022/09/27 01:28:25;;;;;;;2.22;1.00;;;;;;;11.15;100.00;99607.13;2616247;36;20424;-51
2022/09/27 01:31:05;;;;;;;4.00;0.60;;;;;;;11.09;100.00;99599.72;2615485;36;20086;-56
2022/09/27 01:33:45;;;;;;;1.42;0.30;;;;;;;11.00;100.00;99596.19;2616072;31;20038;-54
2022/09/27 01:36:22;;;;;;;1.95;0.40;;;;;;;10.84;100.00;99597.03;2615330;36;20035;-54
2022/09/27 01:39:05;;;;;;;3.78;0.98;;;;;;;10.97;100.00;99609.16;2615237;36;20058;-51
2022/09/27 01:41:40;;;;;;;2.25;0.60;;;;;;;10.97;100.00;99609.16;2614921;36;20038;-52
2022/09/27 01:44:15;;;;;;;1.08;0.40;;;;;;;10.90;100.00;99605.47;2613101;31;20022;-54
2022/09/27 01:46:49;;;;;;;1.75;0.50;;;;;;;10.83;100.00;99611.50;2615539;31;20053;-55
2022/09/27 01:49:26;;;;;;;3.00;0.57;;;;;;;10.84;100.00;99610.50;2616514;36;20388;-54
2022/09/27 01:51:59;;;;;;;6.72;1.15;;;;;;;10.85;100.00;99601.44;2614881;36;20548;-56
2022/09/27 01:54:36;;;;;;;1.90;0.50;;;;;;;10.89;100.00;99610.00;2615037;36;20029;-55
2022/09/27 01:57:07;;;;;;;3.00;0.43;;;;;;;10.89;100.00;99606.47;2615249;36;20022;-54
2022/09/27 01:59:42;;;;;;;2.63;0.45;;;;;;;10.78;100.00;99611.19;2614287;36;20034;-58
2022/09/27 02:02:16;;;;;;;2.85;0.35;;;;;;;10.85;100.00;99608.63;2615526;36;20597;-56
2022/09/27 02:04:47;;;;;;;4.20;0.70;;;;;;;10.84;100.00;99597.03;2615179;36;20030;-53
2022/09/27 02:07:23;;;;;;;2.63;0.40;;;;;;;10.77;100.00;99598.72;2615525;36;20606;-56
2022/09/27 02:09:57;;;;;;;1.60;0.50;;;;;;;10.71;100.00;99599.41;2614813;36;20547;-57
2022/09/27 02:12:31;;;;;;;2.33;0.65;;;;;;;10.68;100.00;99597.06;2614042;36;20027;-56
2022/09/27 02:15:07;;;;;;;2.45;0.40;;;;;;;10.62;100.00;99600.41;2614790;36;20924;-54
2022/09/27 02:17:44;;;;;;;1.27;0.30;;;;;;;10.54;100.00;99595.03;2615331;36;20039;-56
2022/09/27 02:20:20;;;;;;;0.57;0.55;;;;;;;10.47;100.00;99592.19;2615823;36;20423;-55
2022/09/27 02:22:52;;;;;;;0.70;0.40;;;;;;;10.46;100.00;99591.31;2615617;36;20039;-57
2022/09/27 02:25:25;;;;;;;0.60;0.30;;;;;;;10.42;100.00;99587.25;2615232;31;20035;-54
2022/09/27 02:28:00;;;;;;;2.08;0.40;;;;;;;10.37;100.00;99576.19;2615120;31;20065;-56
2022/09/27 02:30:29;;;;;;;1.77;0.40;;;;;;;10.34;100.00;99581.91;2613660;36;20563;-55
2022/09/27 02:33:00;;;;;;;1.98;0.35;;;;;;;10.34;100.00;99581.91;2615940;36;20042;-52
2022/09/27 02:35:33;;;;;;;2.58;0.40;;;;;;;10.37;100.00;99580.72;2615342;36;20023;-55
2022/09/27 02:38:01;;;;;;;5.95;1.13;;;;;;;10.39;100.00;99587.59;2617106;31;20464;-57
2022/09/27 02:40:34;;;;;;;2.17;0.47;;;;;;;10.29;100.00;99579.69;2614661;31;20023;-55
2022/09/27 02:43:06;;;;;;;2.28;0.75;;;;;;;10.24;100.00;99581.19;2616028;36;20663;-55
2022/09/27 02:45:43;;;;;;;5.20;0.75;;;;;;;10.27;100.00;99588.91;2616094;31;20545;-56
2022/09/27 02:48:24;;;;;;;5.60;0.60;;;;;;;10.24;100.00;99582.00;2616038;36;20041;-54
2022/09/27 02:51:07;;;;;;;3.22;0.68;;;;;;;10.28;100.00;99577.97;2617111;31;20451;-58
2022/09/27 02:53:55;;;;;;;1.27;0.50;;;;;;;10.27;100.00;99576.28;2615302;36;20034;-56
2022/09/27 02:56:28;;;;;;;0.65;0.40;;;;;;;10.21;100.00;99585.03;2615646;31;20930;-55
2022/09/27 02:59:06;;;;;;;3.53;0.57;;;;;;;10.17;100.00;99579.16;2615466;36;20034;-55
2022/09/27 03:01:43;;;;;;;2.33;1.05;;;;;;;10.11;100.00;99582.47;2616228;36;20027;-56
2022/09/27 03:04:21;;;;;;;4.13;0.80;;;;;;;10.19;100.00;99579.00;2616290;36;20026;-55
2022/09/27 03:06:52;;;;;;;4.63;1.25;;;;;;;10.11;100.00;99585.16;2617125;36;20420;-52
2022/09/27 03:09:21;;;;;;;2.20;0.77;;;;;;;10.04;100.00;99597.59;2615777;36;20034;-57
2022/09/27 03:11:49;;;;;;;5.30;1.08;;;;;;;9.94;100.00;99592.34;2614395;36;20038;-53
2022/09/27 03:14:18;;;;;;;18.20;1.00;;;;;;;9.98;100.00;99590.16;2613628;31;20022;-55
2022/09/27 03:16:46;;;;;;;4.05;0.88;;;;;;;9.92;100.00;99585.47;2616271;36;20448;-52
2022/09/27 03:19:17;;;;;;;2.63;0.73;;;;;;;9.94;100.00;99586.16;2616542;36;20038;-55
2022/09/27 03:21:45;;;;;;;3.83;0.63;;;;;;;9.93;100.00;99577.22;2615468;36;20565;-52
2022/09/27 03:24:14;;;;;;;3.10;0.88;;;;;;;9.90;100.00;99580.25;2616381;31;20503;-52
2022/09/27 03:26:42;;;;;;;4.30;0.80;;;;;;;9.86;100.00;99578.88;2615694;36;20022;-54
2022/09/27 03:29:10;;;;;;;6.25;0.95;;;;;;;9.74;100.00;99577.50;2615495;36;20022;-55
2022/09/27 03:31:39;;;;;;;4.85;0.70;;;;;;;9.84;100.00;99577.38;2615578;36;20034;-52
2022/09/27 03:34:07;;;;;;;4.07;0.70;;;;;;;9.70;100.00;99579.69;2615246;36;20034;-55
2022/09/27 03:36:38;;;;;;;1.98;0.77;;;;;;;9.63;100.00;99575.97;2615603;36;20039;-51
2022/09/27 03:39:06;;;;;;;2.83;0.82;;;;;;;9.60;100.00;99585.19;2614924;36;20035;-53
2022/09/27 03:41:34;;;;;;;3.85;0.70;;;;;;;9.72;100.00;99582.22;2615529;31;20043;-54
2022/09/27 03:44:03;;;;;;;3.60;0.90;;;;;;;9.55;100.00;99590.19;2615689;31;20061;-55
2022/09/27 03:46:31;;;;;;;5.03;0.80;;;;;;;9.62;100.00;99587.72;2616161;31;20111;-55
2022/09/27 03:49:00;;;;;;;4.63;1.10;;;;;;;9.55;100.00;99595.56;2616277;36;20701;-55
2022/09/27 03:51:28;;;;;;;8.97;1.03;;;;;;;9.68;100.00;99592.44;2615486;36;20034;-55
2022/09/27 03:53:59;;;;;;;2.70;0.83;;;;;;;9.62;100.00;99590.41;2614619;36;20069;-54
2022/09/27 03:56:27;;;;;;;2.05;1.10;;;;;;;9.62;100.00;99593.06;2615481;36;20554;-54
2022/09/27 03:58:56;;;;;;;3.78;0.90;;;;;;;9.53;100.00;99594.88;2614738;36;20038;-50
2022/09/27 04:01:24;;;;;;;0.65;0.52;;;;;;;9.58;100.00;99594.41;2615324;36;20531;-57
2022/09/27 04:03:53;;;;;;;4.80;1.00;;;;;;;9.69;100.00;99598.63;2615494;36;20058;-57
2022/09/27 04:06:22;;;;;;;6.35;0.98;;;;;;;9.65;100.00;99600.81;2615241;31;20026;-54
2022/09/27 04:08:51;;;;;;;4.70;1.25;;;;;;;9.62;100.00;99595.75;2616048;36;20026;-53
2022/09/27 04:11:22;;;;;;;3.67;0.80;;;;;;;9.61;100.00;99602.13;2615350;36;20035;-55
2022/09/27 04:13:50;;;;;;;2.17;1.00;;;;;;;9.66;100.00;99599.81;2613239;36;20538;-51
2022/09/27 04:16:18;;;;;;;0.93;0.60;;;;;;;9.60;100.00;99595.94;2616007;36;20022;-49
2022/09/27 04:18:47;;;;;;;3.75;0.80;;;;;;;9.62;100.00;99593.91;2615739;36;20038;-53
2022/09/27 04:21:16;;;;;;;4.75;1.10;;;;;;;9.60;100.00;99593.25;2615460;36;20029;-56
2022/09/27 04:23:45;;;;;;;2.40;1.08;;;;;;;9.49;100.00;99603.44;2615406;36;20035;-53
2022/09/27 04:26:13;;;;;;;;;;;;;;;9.41;100.00;99607.75;2616128;36;20045;-56
2022/09/27 04:28:45;;;;;;;4.78;1.35;;;;;;;9.41;100.00;99601.53;2615069;36;19947;-55
2022/09/27 04:31:13;;;;;;;3.20;0.80;;;;;;;9.52;100.00;99595.03;2615943;36;20062;-54
2022/09/27 04:33:41;;;;;;;5.63;0.93;;;;;;;9.46;100.00;99586.63;2614169;31;20034;-56
2022/09/27 04:38:53;;;;;;;2.63;0.77;;;;;;;9.33;100.00;99593.44;2616021;31;20492;-53
2022/09/27 04:41:22;;;;;;;2.92;0.80;;;;;;;9.32;100.00;99595.28;2615896;36;20038;-52
2022/09/27 04:43:54;;;;;;;4.50;0.80;;;;;;;9.20;100.00;99596.53;2614615;36;20130;-55
2022/09/27 04:46:23;;;;;;;4.15;0.73;;;;;;;9.12;100.00;99600.03;2615087;36;20038;-55
2022/09/27 04:48:51;;;;;;;;;;;;;;;9.12;100.00;99600.84;2616274;36;20022;-56
2022/09/27 04:51:20;;;;;;;3.58;0.88;;;;;;;9.14;100.00;99602.53;2615225;36;20415;-54
2022/09/27 04:53:49;;;;;;;6.30;0.90;;;;;;;9.10;100.00;99608.22;2614441;36;20035;-52
2022/09/27 04:56:17;;;;;;;2.53;1.17;;;;;;;9.02;100.00;99602.78;2615002;36;20412;-54
2022/09/27 04:58:48;;;;;;;3.90;1.02;;;;;;;8.99;100.00;99608.47;2614562;36;20062;-55
2022/09/27 05:01:19;;;;;;;9.45;0.95;;;;;;;9.03;100.00;99609.84;2615790;36;20431;-53
2022/09/27 05:03:47;;;;;;;2.65;0.80;;;;;;;9.02;100.00;99612.69;2610983;36;20069;-53
2022/09/27 05:06:16;;;;;;;3.63;0.70;;;;;;;9.00;100.00;99612.84;2611895;36;20046;-54
2022/09/27 05:08:44;;;;;;;4.57;1.02;;;;;;;9.00;100.00;99612.84;2613921;36;20052;-55
2022/09/27 05:11:12;;;;;;;2.73;0.97;;;;;;;9.01;100.00;99609.19;2613648;36;20551;-57
2022/09/27 05:13:41;;;;;;;2.60;0.63;;;;;;;8.95;100.00;99612.47;2612046;36;20038;-55
2022/09/27 05:16:10;;;;;;;5.32;1.15;;;;;;;9.01;100.00;99614.56;2614550;36;20381;-56
2022/09/27 05:18:41;;;;;;;5.85;1.30;;;;;;;8.86;100.00;99616.97;2613409;31;20038;-55
2022/09/27 05:21:09;;;;;;;3.35;1.40;;;;;;;8.77;100.00;99617.88;2612564;36;20031;-55
2022/09/27 05:23:37;;;;;;;2.83;0.90;;;;;;;8.90;100.00;99609.44;2612145;36;20034;-54
2022/09/27 05:26:06;;;;;;;5.93;1.17;;;;;;;8.84;100.00;99610.88;2613313;36;20354;-52
2022/09/27 05:28:35;;;;;;;2.08;0.73;;;;;;;8.79;100.00;99612.34;2610846;36;20049;-54
2022/09/27 05:31:03;;;;;;;3.33;0.80;;;;;;;8.71;100.00;99616.66;2609536;36;20041;-55
2022/09/27 05:33:33;;;;;;;3.40;0.82;;;;;;;8.73;100.00;99611.97;2613458;36;20034;-57
2022/09/27 05:36:04;;;;;;;2.15;0.70;;;;;;;8.68;100.00;99618.81;2614186;36;20041;-54
2022/09/27 05:38:32;;;;;;;4.38;0.93;;;;;;;8.71;100.00;99616.66;2614547;36;20035;-55
2022/09/27 05:41:00;;;;;;;3.92;0.60;;;;;;;8.61;100.00;99621.25;2614865;36;20570;-53
2022/09/27 05:43:30;;;;;;;4.15;0.70;;;;;;;8.63;100.00;99619.28;2614266;36;20620;-53
2022/09/27 05:45:59;;;;;;;3.40;0.60;;;;;;;8.64;100.00;99622.78;2615944;36;20033;-56
2022/09/27 05:48:29;;;;;;;3.38;0.98;;;;;;;8.71;100.00;99630.06;2615138;36;20558;-55
2022/09/27 05:50:57;;;;;;;;;;;;;;;8.92;100.00;99635.13;2615051;36;20128;-52
2022/09/27 05:53:28;;;;;;;2.17;1.20;;;;;;;9.05;100.00;99623.13;2615599;36;19947;-53
2022/09/27 05:55:56;;;;;;;3.35;1.05;;;;;;;9.15;100.00;99639.13;2615658;36;20420;-54
2022/09/27 05:58:25;;;;;;;3.73;1.30;;;;;;;9.27;100.00;99637.88;2614921;36;20061;-52
2022/09/27 06:00:53;;;;;;;4.90;1.10;;;;;;;9.36;100.00;99639.59;2615789;36;20034;-53
2022/09/27 06:03:21;;;;;;;5.15;1.40;;;;;;;9.44;100.00;99647.72;2615523;36;20038;-56
2022/09/27 06:05:49;;;;;;;2.10;1.00;;;;;;;9.63;100.00;99645.81;2614738;31;20038;-53
2022/09/27 06:08:19;;;;;;;3.17;1.80;;;;;;;9.64;100.00;99640.28;2614353;36;20034;-57
2022/09/27 06:10:51;;;;;;;8.50;1.67;;;;;;;9.80;100.00;99644.91;2615246;36;20048;-53
2022/09/27 06:13:20;;;;;;;4.88;1.83;;;;;;;10.04;100.00;99643.31;2613417;36;20126;-58
2022/09/27 06:15:49;;;;;;;4.32;0.90;;;;;;;10.08;100.00;99651.88;2613940;36;20446;-55
2022/09/27 06:18:18;;;;;;;1.88;0.93;;;;;;;10.20;100.00;99649.72;2613158;36;20531;-57
2022/09/27 06:20:48;;;;;;;5.27;1.20;;;;;;;10.23;100.00;99642.19;2616162;36;20034;-57
2022/09/27 06:23:18;;;;;;;3.75;0.80;;;;;;;10.25;100.00;99647.41;2616233;36;20830;-57
2022/09/27 06:25:51;;;;;;;5.05;1.15;;;;;;;10.27;100.00;99645.38;2616451;36;20030;-55
2022/09/27 06:28:20;;;;;;;2.58;0.75;;;;;;;10.31;100.00;99646.75;2614828;36;20034;-57
2022/09/27 06:30:50;;;;;;;1.98;0.95;;;;;;;10.48;100.00;99647.63;2613692;36;20034;-55
2022/09/27 06:33:21;;;;;;;1.20;0.52;;;;;;;10.54;100.00;99648.81;2615009;31;20034;-54
2022/09/27 06:35:50;;;;;;;2.72;0.90;;;;;;;10.66;100.00;99655.59;2614174;36;20061;-57
2022/09/27 06:38:20;;;;;;;4.65;1.05;;;;;;;10.81;100.00;99645.84;2615487;36;20023;-56
2022/09/27 06:40:51;;;;;;;2.85;0.63;;;;;;;10.99;100.00;99656.44;2589232;36;23248;-55
2022/09/27 06:43:21;;;;;;;3.05;0.80;;;;;;;11.09;100.00;99658.13;2613644;36;20435;-57
2022/09/27 06:45:49;;;;;;;2.58;0.90;;;;;;;11.28;100.00;99656.91;2614699;36;20129;-56
2022/09/27 06:48:18;;;;;;;4.47;0.80;;;;;;;11.32;100.00;99663.63;2615457;36;20040;-53
2022/09/27 06:50:48;;;;;;;1.17;0.53;;;;;;;11.41;100.00;99659.94;2616524;36;20390;-57
2022/09/27 06:53:18;;;;;;;2.05;0.73;;;;;;;11.37;100.00;99659.44;2615457;31;20034;-57
2022/09/27 06:55:46;;;;;;;3.03;1.08;;;;;;;11.29;100.00;99661.28;2615322;31;20034;-56
2022/09/27 07:00:58;;;;;;;2.67;0.60;;;;;;;11.47;100.00;99664.66;2615737;36;20022;-54
2022/09/27 07:03:31;;;;;;;3.03;0.70;;;;;;;11.46;100.00;99662.13;2615769;36;20404;-53
2022/09/27 07:06:01;;;;;;;0.85;0.50;;;;;;;11.16;100.00;99669.88;2616294;36;20038;-55
2022/09/27 07:08:31;;;;;;;2.28;0.63;;;;;;;10.98;100.00;99662.84;2615877;36;20043;-57
2022/09/27 07:11:05;;;;;;;3.55;0.80;;;;;;;10.97;100.00;99660.31;2615624;36;20030;-54
2022/09/27 07:13:41;;;;;;;2.97;0.93;;;;;;;11.07;100.00;99670.91;2614780;36;20034;-55
2022/09/27 07:16:12;;;;;;;4.22;1.10;;;;;;;10.99;100.00;99677.13;2615418;36;20042;-53
2022/09/27 07:18:40;;;;;;;2.33;0.95;;;;;;;10.81;100.00;99680.81;2616507;36;20038;-54
2022/09/27 07:21:11;;;;;;;4.73;1.17;;;;;;;10.84;100.00;99685.03;2614515;36;20042;-53
2022/09/27 07:23:39;;;;;;;2.38;1.02;;;;;;;11.01;100.00;99673.28;2616056;31;20518;-55
2022/09/27 07:26:09;;;;;;;3.88;1.13;;;;;;;11.04;100.00;99669.38;2612751;36;20030;-56
2022/09/27 07:28:40;;;;;;;3.25;0.80;;;;;;;11.15;100.00;99685.22;2614122;36;20035;-56
2022/09/27 07:31:11;;;;;;;2.03;0.80;;;;;;;11.15;100.00;99673.59;2615462;36;20046;-54
2022/09/27 07:33:39;;;;;;;3.67;0.93;;;;;;;11.19;100.00;99685.72;2612547;36;20026;-55
2022/09/27 07:36:10;;;;;;;3.78;0.70;;;;;;;11.28;100.00;99681.16;2615107;36;20056;-59
2022/09/27 07:38:38;;;;;;;3.42;0.90;;;;;;;11.09;100.00;99677.81;2615682;36;20269;-53
2022/09/27 07:41:08;;;;;;;4.17;1.23;;;;;;;11.29;100.00;99677.44;2615854;36;20035;-54
2022/09/27 07:43:36;;;;;;;6.20;1.20;;;;;;;11.60;100.00;99690.22;2616197;31;21017;-55
2022/09/27 07:46:07;;;;;;;4.70;1.23;;;;;;;11.65;100.00;99683.28;2616270;36;20049;-51
2022/09/27 07:48:36;;;;;;;1.63;0.80;;;;;;;11.31;100.00;99675.44;2616003;36;20074;-57
2022/09/27 07:51:06;;;;;;;1.85;1.10;;;;;;;11.37;100.00;99688.22;2616315;36;20029;-55
2022/09/27 07:53:34;;;;;;;2.08;1.25;;;;;;;11.57;100.00;99696.78;2615865;36;20397;-56
2022/09/27 07:56:03;;;;;;;5.55;1.35;;;;;;;11.72;100.00;99708.56;2614676;36;20026;-54
2022/09/27 07:58:32;;;;;;;5.47;1.05;;;;;;;11.75;100.00;99720.84;2615471;36;20054;-53
2022/09/27 08:01:01;;;;;;;4.05;1.50;;;;;;;11.84;100.00;99721.69;2615742;31;20030;-56
2022/09/27 08:03:33;;;;;;;5.00;1.23;;;;;;;11.78;100.00;99725.91;2613489;32;20057;-56
2022/09/27 08:06:04;;;;;;;5.85;1.77;;;;;;;11.79;100.00;99730.25;2614355;36;20038;-56
2022/09/27 08:08:33;;;;;;;4.95;1.40;;;;;;;11.96;100.00;99728.41;2616142;36;20057;-58
2022/09/27 08:11:01;;;;;;;2.95;0.80;;;;;;;11.87;100.00;99734.81;2615659;36;20045;-57
2022/09/27 08:13:29;;;;;;;4.65;0.98;;;;;;;11.74;100.00;99736.16;2615832;36;20430;-56
2022/09/27 08:16:03;;;;;;;1.67;0.70;;;;;;;11.72;100.00;99737.38;2615786;36;20030;-58
2022/09/27 08:18:34;;;;;;;3.38;0.77;;;;;;;11.86;100.00;99733.94;2615672;36;20042;-59
2022/09/27 08:21:02;;;;;;;2.53;0.80;;;;;;;11.98;100.00;99736.31;2616016;36;20415;-59
2022/09/27 08:23:31;;;;;;;3.83;0.83;;;;;;;12.03;100.00;99739.34;2612945;36;20035;-61
2022/09/27 08:26:00;;;;;;;1.20;0.88;;;;;;;11.87;100.00;99746.41;2607206;36;20030;-59
2022/09/27 08:28:29;;;;;;;3.40;0.60;;;;;;;12.07;100.00;99746.06;2614790;31;20403;-59
2022/09/27 08:30:59;;;;;;;1.90;0.50;;;;;;;12.16;100.00;99742.34;2612310;36;20041;-58
2022/09/27 08:33:27;;;;;;;2.15;0.65;;;;;;;12.22;100.00;99741.63;2615572;36;20122;-57
2022/09/27 08:35:58;;;;;;;1.52;0.70;;;;;;;12.26;100.00;99734.88;2615674;36;20057;-58
2022/09/27 08:38:27;;;;;;;2.22;0.63;;;;;;;12.26;100.00;99744.81;2615765;36;20039;-58
2022/09/27 08:40:58;;;;;;;5.15;0.98;;;;;;;12.15;100.00;99737.94;2615062;36;20026;-57
2022/09/27 08:43:38;;;;;;;2.30;0.50;;;;;;;12.41;100.00;99736.81;2614950;36;20583;-58
2022/09/27 08:46:18;;;;;;;2.92;0.68;;;;;;;12.49;100.00;99735.97;2616785;31;20476;-58
2022/09/27 08:48:51;;;;;;;0.30;0.30;;;;;;;12.61;100.00;99734.53;2615393;36;20040;-58
2022/09/27 08:51:26;;;;;;;1.55;0.70;;;;;;;12.35;100.00;99743.78;2614553;36;20030;-58
2022/09/27 08:53:59;;;;;;;2.35;0.80;;;;;;;12.38;100.00;99742.56;2614660;36;20550;-59
2022/09/27 08:56:30;;;;;;;1.73;0.57;;;;;;;12.61;100.00;99737.25;2612534;36;20034;-59
2022/09/27 08:59:06;;;;;;;3.13;0.90;;;;;;;12.62;100.00;99739.75;2616393;36;20030;-58
2022/09/27 09:01:36;;;;;;;2.80;0.70;;;;;;;12.91;100.00;99732.84;2614532;36;20023;-59
2022/09/27 09:04:05;;;;;;;3.00;0.90;;;;;;;12.91;100.00;99729.28;2615145;36;20022;-57
2022/09/27 09:06:44;;;;;;;2.75;0.80;;;;;;;12.99;100.00;99731.94;2614469;36;20041;-58
2022/09/27 09:09:26;;;;;;;4.00;0.93;;;;;;;12.87;100.00;99731.53;2615542;36;20562;-57
2022/09/27 09:15:00;;;;;;;2.17;1.08;;;;;;;13.06;100.00;99734.75;2615040;31;20057;-57
2022/09/27 09:17:48;;;;;;;2.63;0.98;;;;;;;12.65;100.00;99740.41;2614588;36;20034;-54
2022/09/27 09:20:23;;;;;;;3.33;0.80;;;;;;;12.29;100.00;99744.47;2615679;36;20432;-55
2022/09/27 09:23:10;;;;;;;4.07;1.00;;;;;;;12.51;100.00;99748.25;2614718;31;20034;-57
2022/09/27 09:25:47;;;;;;;2.40;1.10;;;;;;;12.70;100.00;99751.53;2605846;36;20023;-57
2022/09/27 09:28:30;;;;;;;2.53;1.10;;;;;;;12.68;100.00;99742.78;2613441;36;20023;-56
2022/09/27 09:31:09;;;;;;;7.03;1.55;;;;;;;12.51;100.00;99748.25;2614732;36;20041;-56
2022/09/27 09:33:42;;;;;;;2.08;1.00;;;;;;;12.56;100.00;99750.44;2614264;36;20034;-57
2022/09/27 09:36:22;;;;;;;3.30;1.23;;;;;;;12.65;100.00;99754.78;2613907;36;20034;-57
2022/09/27 09:38:56;;;;;;;3.20;1.00;;;;;;;12.61;100.00;99756.97;2608569;36;20023;-55
2022/09/27 09:41:30;;;;;;;5.03;0.93;;;;;;;12.45;100.00;99759.75;2614513;36;20034;-56
2022/09/27 09:44:03;;;;;;;2.75;0.85;;;;;;;12.67;100.00;99752.72;2615198;36;20034;-57
2022/09/27 09:46:37;;;;;;;6.75;1.00;;;;;;;12.79;100.00;99750.47;2635416;36;20038;-56
2022/09/27 09:49:16;;;;;;;2.80;1.20;;;;;;;12.86;100.00;99756.00;2615525;36;20027;-57
2022/09/27 09:51:49;;;;;;;2.08;0.93;;;;;;;12.84;100.00;99742.69;2617654;36;20035;-57
2022/09/27 09:54:25;;;;;;;5.40;1.20;;;;;;;12.61;100.00;99758.84;2617346;31;20041;-55
2022/09/27 09:57:03;;;;;;;6.82;2.63;;;;;;;12.69;100.00;99753.41;2615951;36;20037;-60
2022/09/27 09:59:37;;;;;;;2.78;0.68;;;;;;;12.64;100.00;99754.94;2616018;36;20027;-57
2022/09/27 10:02:22;;;;;;;2.45;0.65;;;;;;;12.67;100.00;99754.59;2616943;36;20038;-54
2022/09/27 10:04:51;;;;;;;1.83;0.55;;;;;;;12.59;100.00;99761.72;2616115;36;20654;-57
2022/09/27 10:07:22;;;;;;;4.05;0.60;;;;;;;12.78;100.00;99760.44;2615987;36;20551;-57
2022/09/27 10:09:55;;;;;;;1.40;0.60;;;;;;;12.93;100.00;99768.59;2616823;36;20073;-57
2022/09/27 10:12:24;;;;;;;3.25;0.65;;;;;;;13.15;100.00;99763.41;2617336;36;20043;-57
2022/09/27 10:14:55;;;;;;;2.40;0.77;;;;;;;13.33;100.00;99763.09;2616182;36;20035;-57
2022/09/27 10:17:28;;;;;;;0.95;0.73;;;;;;;13.23;100.00;99755.22;2617968;36;20420;-57
2022/09/27 10:19:59;;;;;;;1.13;0.63;;;;;;;13.01;100.00;99758.78;2617509;36;20022;-58
2022/09/27 10:22:35;;;;;;;1.10;0.60;;;;;;;13.07;100.00;99763.47;2617047;36;20050;-58
2022/09/27 10:25:08;;;;;;;2.90;0.60;;;;;;;13.14;100.00;99756.31;2616185;36;20455;-57
2022/09/27 10:27:42;;;;;;;4.95;0.85;;;;;;;13.04;100.00;99756.53;2616266;36;20108;-55
2022/09/27 10:30:39;;;;;;;1.20;0.70;;;;;;;12.71;100.00;99766.72;2616462;36;20147;-58
2022/09/27 10:33:18;;;;;;;0.98;0.60;;;;;;;12.57;100.00;99763.75;2609899;36;20415;-57
2022/09/27 10:35:49;;;;;;;3.05;0.65;;;;;;;12.88;100.00;99757.50;2616327;36;20038;-58
2022/09/27 10:38:26;;;;;;;2.70;0.60;;;;;;;12.84;100.00;99760.72;2610239;36;20034;-57
2022/09/27 10:41:00;;;;;;;2.78;0.60;;;;;;;12.72;100.00;99760.28;2617046;36;20027;-56
2022/09/27 10:43:33;;;;;;;1.20;0.50;;;;;;;12.92;100.00;99753.41;2616200;36;20082;-57
2022/09/27 10:46:22;;;;;;;2.92;0.60;;;;;;;12.82;100.00;99744.69;2615930;36;20025;-58
2022/09/27 10:49:11;;;;;;;1.80;0.60;;;;;;;12.82;100.00;99744.69;2616718;36;20038;-58
2022/09/27 10:51:40;;;;;;;0.90;0.50;;;;;;;13.03;100.00;99745.91;2617149;36;20547;-56
2022/09/27 10:54:21;;;;;;;1.50;0.50;;;;;;;12.71;100.00;99750.53;2616359;36;20041;-57
2022/09/27 10:57:00;;;;;;;3.10;0.80;;;;;;;12.87;100.00;99753.13;2616382;36;20667;-57
2022/09/27 10:59:32;;;;;;;2.92;0.80;;;;;;;13.08;100.00;99759.75;2615882;36;20030;-57
2022/09/27 11:02:01;;;;;;;1.23;0.55;;;;;;;13.12;100.00;99759.19;2617516;31;20569;-57
2022/09/27 11:04:32;;;;;;;2.05;0.70;;;;;;;13.21;100.00;99754.56;2615263;36;20042;-57
2022/09/27 11:07:17;;;;;;;0.98;0.50;;;;;;;12.85;100.00;99759.72;2614248;36;20039;-58
2022/09/27 11:09:51;;;;;;;0.95;0.60;;;;;;;12.78;100.00;99760.44;2616090;36;20515;-57
2022/09/27 11:12:24;;;;;;;3.05;0.73;;;;;;;13.27;100.00;99758.44;2614993;36;20477;-57
2022/09/27 11:14:57;;;;;;;4.65;0.80;;;;;;;13.09;100.00;99762.25;2615824;36;20166;-56
2022/09/27 11:17:36;;;;;;;1.88;0.60;;;;;;;12.74;100.00;99760.97;2615183;36;20049;-56
2022/09/27 11:20:21;;;;;;;1.60;0.60;;;;;;;13.00;100.00;99762.50;2616016;36;20431;-57
2022/09/27 11:23:14;;;;;;;1.58;0.60;;;;;;;12.87;100.00;99769.31;2616083;36;20059;-56
2022/09/27 11:25:53;;;;;;;1.90;0.70;;;;;;;13.12;100.00;99777.28;2616070;36;20053;-57
2022/09/27 11:28:39;;;;;;;2.80;0.88;;;;;;;12.89;100.00;99771.84;2614375;31;20554;-58
2022/09/27 11:31:20;;;;;;;2.85;0.70;;;;;;;12.85;100.00;99748.91;2616661;36;20043;-57
2022/09/27 11:34:03;;;;;;;3.50;0.88;;;;;;;12.53;100.00;99748.06;2614295;36;20034;-58
2022/09/27 11:36:45;;;;;;;4.38;0.93;;;;;;;12.80;100.00;99750.28;2606416;31;20034;-57
2022/09/27 11:39:22;;;;;;;1.23;0.70;;;;;;;12.83;100.00;99735.59;2615440;36;20026;-57
2022/09/27 11:42:07;;;;;;;3.45;1.08;;;;;;;12.72;100.00;99738.69;2615226;36;20034;-57
2022/09/27 11:45:02;;;;;;;2.10;0.70;;;;;;;12.27;100.00;99739.25;2608077;36;20049;-56
2022/09/27 11:47:40;;;;;;;3.75;1.20;;;;;;;12.33;100.00;99745.81;2615998;31;20029;-57
2022/09/27 11:50:35;;;;;;;2.95;0.90;;;;;;;12.23;100.00;99746.03;2615828;36;20053;-56
2022/09/27 11:53:17;;;;;;;5.47;1.10;;;;;;;11.86;100.00;99750.13;2616571;36;20045;-56
2022/09/27 11:55:55;;;;;;;2.10;0.80;;;;;;;12.07;100.00;99752.31;2615766;31;20034;-55
2022/09/27 11:58:32;;;;;;;2.47;0.80;;;;;;;12.05;100.00;99748.94;2613588;31;20072;-59
2022/09/27 12:01:15;;;;;;;3.40;0.80;;;;;;;11.88;100.00;99756.19;2615821;36;20027;-58
2022/09/27 12:04:21;;;;;;;2.03;0.80;;;;;;;12.01;100.00;99755.69;2616284;36;20053;-56